Time;durP1;ratioP1;P1;durP2;ratioP2;P2;SDS_P1;SDS_P2;PMS_P1;PMS_P2;Temp;Humidity;BMP_temperature;BMP_pressure;BME280_temperature;BME280_humidity;BME280_pressure;Samples;Min_cycle;Max_cycle;Signal;HPM_P1;HPM_P2
2023/02/11 00:23:14;;;;;;;;;;;-2.50;99.90;;;;;;5063083;28;19931;-72
2023/02/11 00:25:44;;;;;;;;;;;-2.60;99.90;;;;;;5064055;28;19932;-74
2023/02/11 00:28:18;;;;;;;;;;;-2.60;99.90;;;;;;5066404;28;19936;-73
2023/02/11 00:31:12;;;;;;;;;;;-2.50;99.90;;;;;;5058962;28;19916;-73
2023/02/11 00:33:43;;;;;;;;;;;-2.60;99.90;;;;;;5053287;28;19983;-73
2023/02/11 00:36:18;;;;;;;;;;;-2.60;99.90;;;;;;5043246;28;19925;-73
2023/02/11 00:38:50;;;;;;;;;;;-2.60;99.90;;;;;;5074273;28;20348;-73
2023/02/11 00:41:19;;;;;;;;;;;-2.60;99.90;;;;;;5054870;28;19931;-72
2023/02/11 00:43:49;;;;;;;;;;;-2.70;99.90;;;;;;5054400;28;19924;-73
2023/02/11 00:46:20;;;;;;;;;;;-2.70;99.90;;;;;;5048932;28;19924;-73
2023/02/11 00:48:56;;;;;;;;;;;-2.80;99.90;;;;;;5063092;28;19951;-73
2023/02/11 00:51:25;;;;;;;;;;;-2.80;99.90;;;;;;5048011;28;19925;-72
2023/02/11 00:59:30;;;;;;;;;;;-2.90;99.90;;;;;;5058366;28;19924;-73
2023/02/11 01:02:00;;;;;;;;;;;-2.90;99.90;;;;;;5041426;28;19932;-73
2023/02/11 01:40:11;;;;;;;;;;;-3.40;99.90;;;;;;5055272;28;20315;-73
2023/02/11 01:42:44;;;;;;;;;;;-3.40;99.90;;;;;;5060764;28;19978;-73
2023/02/11 01:57:22;;;;;;;;;;;-3.40;99.90;;;;;;5058617;28;19940;-73
2023/02/11 02:03:04;;;;;;;;;;;-3.40;99.90;;;;;;5060155;28;20454;-72
2023/02/11 02:24:55;;;;;;;;;;;-3.70;99.90;;;;;;5108202;28;20278;-75
2023/02/11 02:33:26;;;;;;;;;;;-3.70;99.90;;;;;;5107830;28;19924;-75
2023/02/11 02:36:13;;;;;;;;;;;-3.60;99.90;;;;;;5106093;28;19928;-75
2023/02/11 02:38:53;;;;;;;;;;;-3.50;99.90;;;;;;5091545;28;20073;-75
2023/02/11 02:41:24;;;;;;;;;;;-3.40;99.90;;;;;;5107881;28;19935;-75
2023/02/11 02:43:53;;;;;;;;;;;-3.10;99.90;;;;;;5107335;28;19931;-74
2023/02/11 02:46:24;;;;;;;;;;;-3.00;99.90;;;;;;5102981;28;20023;-75
2023/02/11 03:03:22;;;;;;;;;;;-2.40;99.90;;;;;;5100519;28;19924;-73
2023/02/11 03:05:54;;;;;;;;;;;-2.60;99.90;;;;;;5108282;28;19930;-75
2023/02/11 03:08:55;;;;;;;;;;;-2.80;99.90;;;;;;5105679;28;19924;-73
2023/02/11 03:11:28;;;;;;;;;;;-3.00;99.90;;;;;;5093022;28;19924;-75
2023/02/11 03:13:56;;;;;;;;;;;-3.20;99.90;;;;;;5106766;28;19923;-73
2023/02/11 03:16:34;;;;;;;;;;;-3.30;99.90;;;;;;5088577;28;19924;-75
2023/02/11 03:19:28;;;;;;;;;;;-3.30;99.90;;;;;;5115119;28;20422;-75
2023/02/11 03:21:56;;;;;;;;;;;-3.30;99.90;;;;;;5075031;28;19924;-75
2023/02/11 03:24:34;;;;;;;;;;;-3.40;99.90;;;;;;5081101;28;20373;-75
2023/02/11 03:27:09;;;;;;;;;;;-3.40;99.90;;;;;;5089490;28;20461;-75
2023/02/11 03:29:48;;;;;;;;;;;-3.50;99.90;;;;;;5092460;28;20499;-74
2023/02/11 03:32:25;;;;;;;;;;;-3.50;99.90;;;;;;5087988;28;20378;-75
2023/02/11 06:17:49;;;;;;;;;;;-2.20;99.90;;;;;;5061346;28;19921;-75
2023/02/11 06:20:18;;;;;;;;;;;-2.10;99.90;;;;;;5060122;28;19925;-75
2023/02/11 06:22:48;;;;;;;;;;;-2.00;99.90;;;;;;5073808;28;19937;-74
2023/02/11 06:25:18;;;;;;;;;;;-2.00;99.90;;;;;;5065181;28;19931;-74
2023/02/11 06:27:48;;;;;;;;;;;-2.00;99.90;;;;;;5064451;28;20016;-74
2023/02/11 06:30:15;;;;;;;;;;;-2.00;99.90;;;;;;5060892;28;19925;-74
2023/02/11 06:32:42;;;;;;;;;;;-2.00;99.90;;;;;;5078511;28;20039;-73
2023/02/11 06:35:14;;;;;;;;;;;-2.10;99.90;;;;;;5075443;28;19924;-74
2023/02/11 06:37:41;;;;;;;;;;;-2.10;99.90;;;;;;5081026;28;19964;-73
2023/02/11 06:40:09;;;;;;;;;;;-2.20;99.90;;;;;;5058002;28;20023;-74
2023/02/11 06:42:37;;;;;;;;;;;-2.30;99.90;;;;;;5074106;28;19979;-74
2023/02/11 06:45:07;;;;;;;;;;;-2.30;99.90;;;;;;5062595;28;19943;-73
2023/02/11 06:47:34;;;;;;;;;;;-2.30;99.90;;;;;;5078103;28;19971;-74
2023/02/11 06:50:02;;;;;;;;;;;-2.30;99.90;;;;;;5071898;28;20012;-74
2023/02/11 06:52:29;;;;;;;;;;;-2.30;99.90;;;;;;5082423;28;19928;-74
2023/02/11 06:54:57;;;;;;;;;;;-2.40;99.90;;;;;;5075743;28;19978;-74
2023/02/11 06:57:25;;;;;;;;;;;-2.40;99.90;;;;;;5043146;28;20389;-74
2023/02/11 06:59:54;;;;;;;;;;;-2.30;99.90;;;;;;5076722;28;19932;-74
2023/02/11 07:02:23;;;;;;;;;;;-2.30;99.90;;;;;;5073357;28;20007;-74
2023/02/11 07:04:51;;;;;;;;;;;-2.30;99.90;;;;;;5058329;28;19925;-74
2023/02/11 07:07:19;;;;;;;;;;;-2.30;99.90;;;;;;5046701;28;19928;-74
2023/02/11 07:09:47;;;;;;;;;;;-2.20;99.90;;;;;;5063694;28;19929;-73
2023/02/11 07:12:14;;;;;;;;;;;-2.20;99.90;;;;;;5060445;28;20011;-74
2023/02/11 07:14:42;;;;;;;;;;;-2.20;99.90;;;;;;5073113;28;20358;-73
2023/02/11 07:17:09;;;;;;;;;;;-2.20;99.90;;;;;;5063618;28;19928;-73
2023/02/11 07:19:38;;;;;;;;;;;-2.10;99.90;;;;;;5082623;28;20065;-73
2023/02/11 07:22:07;;;;;;;;;;;-2.10;99.90;;;;;;5070001;28;20354;-74
2023/02/11 07:24:36;;;;;;;;;;;-2.00;99.90;;;;;;5063377;28;19929;-74
2023/02/11 07:27:03;;;;;;;;;;;-2.00;99.90;;;;;;5064859;28;19924;-74
2023/02/11 07:29:31;;;;;;;;;;;-1.90;99.90;;;;;;5048935;28;19925;-74
2023/02/11 07:32:00;;;;;;;;;;;-1.90;99.90;;;;;;5060557;28;19924;-74
2023/02/11 07:34:29;;;;;;;;;;;-1.80;99.90;;;;;;5045000;28;19960;-74
2023/02/11 07:36:58;;;;;;;;;;;-1.80;99.90;;;;;;5049046;28;20006;-74
2023/02/11 07:39:28;;;;;;;;;;;-1.80;99.90;;;;;;5046029;28;19939;-74
2023/02/11 07:41:58;;;;;;;;;;;-1.70;99.90;;;;;;5066268;28;19928;-74
2023/02/11 07:44:28;;;;;;;;;;;-1.60;99.90;;;;;;5058624;28;19925;-74
2023/02/11 07:46:57;;;;;;;;;;;-1.50;99.90;;;;;;5057305;28;19929;-74
2023/02/11 07:49:26;;;;;;;;;;;-1.50;99.90;;;;;;5056377;28;19925;-74
2023/02/11 07:51:55;;;;;;;;;;;-1.40;99.90;;;;;;5060599;28;20059;-75
2023/02/11 07:54:24;;;;;;;;;;;-1.30;99.90;;;;;;5049618;28;19933;-74
2023/02/11 07:56:54;;;;;;;;;;;-1.20;99.90;;;;;;5042664;28;19951;-74
2023/02/11 07:59:23;;;;;;;;;;;-1.10;99.90;;;;;;5059625;28;19929;-74
2023/02/11 08:01:53;;;;;;;;;;;-1.00;99.90;;;;;;5057099;28;20472;-74
2023/02/11 08:48:08;;;;;;;;;;;0.20;99.90;;;;;;5122003;27;19920;-73
2023/02/11 08:50:39;;;;;;;;;;;0.30;99.90;;;;;;5120241;28;19923;-72
2023/02/11 08:53:23;;;;;;;;;;;0.40;99.90;;;;;;5134294;27;19923;-73
2023/02/11 08:56:02;;;;;;;;;;;0.60;99.90;;;;;;5146266;27;19934;-73
2023/02/11 08:58:30;;;;;;;;;;;0.80;99.90;;;;;;5102540;27;19924;-72
2023/02/11 09:00:59;;;;;;;;;;;0.90;99.90;;;;;;5127424;27;19923;-74
2023/02/11 09:03:28;;;;;;;;;;;1.00;99.90;;;;;;5136251;27;19931;-72
2023/02/11 09:06:03;;;;;;;;;;;1.10;99.90;;;;;;5115307;27;19946;-73
2023/02/11 09:08:34;;;;;;;;;;;1.20;99.90;;;;;;5135255;27;19972;-72
2023/02/11 09:11:07;;;;;;;;;;;1.30;99.90;;;;;;5115569;27;20321;-73
2023/02/11 09:13:36;;;;;;;;;;;1.40;99.90;;;;;;5107705;27;19959;-72
2023/02/11 09:16:07;;;;;;;;;;;1.50;99.90;;;;;;5119104;27;20298;-72
2023/02/11 09:18:40;;;;;;;;;;;1.60;99.90;;;;;;5120008;27;19923;-73
2023/02/11 09:21:12;;;;;;;;;;;1.60;99.90;;;;;;5141195;27;19976;-72
2023/02/11 09:23:46;;;;;;;;;;;1.60;99.90;;;;;;5137073;27;20348;-72
2023/02/11 09:26:19;;;;;;;;;;;1.70;99.90;;;;;;5131918;27;20018;-72
2023/02/11 09:28:48;;;;;;;;;;;1.70;99.90;;;;;;5110092;27;19927;-72
2023/02/11 09:31:18;;;;;;;;;;;1.70;99.90;;;;;;5107226;27;19939;-72
2023/02/11 09:33:51;;;;;;;;;;;1.80;99.90;;;;;;5127001;27;19976;-72
2023/02/11 09:36:28;;;;;;;;;;;1.80;99.90;;;;;;5124071;27;19958;-72
2023/02/11 09:38:57;;;;;;;;;;;1.90;99.90;;;;;;5125958;27;19930;-72
2023/02/11 09:41:45;;;;;;;;;;;1.90;99.90;;;;;;5140084;27;20006;-72
2023/02/11 09:44:21;;;;;;;;;;;1.90;99.90;;;;;;5107392;27;19924;-72
2023/02/11 09:47:17;;;;;;;;;;;2.00;99.90;;;;;;5128421;27;19923;-73
2023/02/11 09:49:50;;;;;;;;;;;2.10;99.90;;;;;;5120296;27;19931;-73
2023/02/11 09:52:39;;;;;;;;;;;2.10;99.90;;;;;;5109162;27;19930;-73
2023/02/11 09:55:28;;;;;;;;;;;2.30;99.90;;;;;;5126273;27;19924;-73
2023/02/11 09:58:00;;;;;;;;;;;2.30;99.90;;;;;;5093608;27;19927;-71
2023/02/11 10:00:42;;;;;;;;;;;2.40;99.90;;;;;;5113426;27;20018;-72
2023/02/11 10:03:19;;;;;;;;;;;2.50;99.90;;;;;;5131037;27;20495;-71
2023/02/11 10:06:01;;;;;;;;;;;2.60;99.90;;;;;;5126238;27;20055;-72
2023/02/11 10:08:39;;;;;;;;;;;2.70;99.90;;;;;;5091954;27;19935;-72
2023/02/11 10:11:29;;;;;;;;;;;2.80;99.90;;;;;;5113973;27;19999;-71
2023/02/11 10:14:17;;;;;;;;;;;2.90;99.90;;;;;;5146338;27;19951;-72
2023/02/11 10:16:54;;;;;;;;;;;2.90;99.90;;;;;;5113646;27;19975;-73
2023/02/11 10:19:38;;;;;;;;;;;3.00;99.90;;;;;;5132932;27;19927;-72
2023/02/11 10:22:30;;;;;;;;;;;3.00;99.90;;;;;;5096728;28;20022;-71
2023/02/11 10:25:17;;;;;;;;;;;3.00;99.90;;;;;;5091620;28;19977;-73
2023/02/11 10:27:47;;;;;;;;;;;3.00;99.90;;;;;;5105211;28;20006;-73
2023/02/11 10:30:28;;;;;;;;;;;3.10;99.90;;;;;;5111809;27;19932;-73
2023/02/11 10:33:16;;;;;;;;;;;3.10;99.90;;;;;;5095029;27;19934;-72
2023/02/11 10:35:46;;;;;;;;;;;3.10;99.90;;;;;;5093663;27;19934;-73
2023/02/11 10:38:17;;;;;;;;;;;3.10;99.90;;;;;;5103157;27;19936;-73
2023/02/11 10:40:46;;;;;;;;;;;3.20;99.90;;;;;;5107290;27;20062;-73
2023/02/11 10:43:17;;;;;;;;;;;3.30;99.90;;;;;;5102396;27;20038;-73
2023/02/11 10:45:50;;;;;;;;;;;3.30;99.90;;;;;;5134970;27;19930;-73
2023/02/11 10:48:35;;;;;;;;;;;3.40;99.90;;;;;;5094439;27;19924;-73
2023/02/11 10:51:08;;;;;;;;;;;3.40;99.90;;;;;;5090181;27;19929;-72
2023/02/11 10:53:37;;;;;;;;;;;3.40;99.90;;;;;;5104531;27;19976;-73
2023/02/11 11:11:57;;;;;;;;;;;4.50;99.90;;;;;;5090793;27;20338;-73
2023/02/11 11:14:28;;;;;;;;;;;4.50;99.90;;;;;;5105544;27;20315;-72
2023/02/11 11:16:59;;;;;;;;;;;4.50;99.90;;;;;;5098617;27;19963;-73
2023/02/11 11:19:29;;;;;;;;;;;4.60;99.90;;;;;;5112655;27;20363;-73
2023/02/11 11:21:59;;;;;;;;;;;4.60;99.90;;;;;;5105171;28;19974;-73
2023/02/11 12:44:29;;;;;;;;;;;6.30;99.90;;;;;;5065368;28;19956;-72
2023/02/11 12:47:09;;;;;;;;;;;6.40;99.90;;;;;;5096970;28;20019;-72
2023/02/11 12:49:55;;;;;;;;;;;6.60;99.90;;;;;;5108173;28;20079;-72
2023/02/11 12:52:27;;;;;;;;;;;6.60;99.90;;;;;;5109219;27;19924;-71
2023/02/11 12:55:02;;;;;;;;;;;6.50;99.90;;;;;;5104182;28;20380;-72
2023/02/11 13:10:47;;;;;;;;;;;7.00;99.90;;;;;;5078224;28;20362;-72
2023/02/11 13:13:22;;;;;;;;;;;7.20;99.90;;;;;;5099563;28;19940;-72
2023/02/11 13:16:08;;;;;;;;;;;7.30;99.90;;;;;;5096419;28;19924;-72
2023/02/11 13:18:42;;;;;;;;;;;7.30;99.90;;;;;;5098008;28;19932;-72
2023/02/11 13:21:15;;;;;;;;;;;7.30;99.90;;;;;;5091745;28;19928;-72
2023/02/11 13:23:56;;;;;;;;;;;7.20;99.90;;;;;;5094638;28;19931;-71
2023/02/11 13:26:32;;;;;;;;;;;7.20;99.90;;;;;;5092932;28;19982;-72
2023/02/11 13:29:22;;;;;;;;;;;7.10;99.90;;;;;;5094305;28;19924;-73
2023/02/11 13:31:55;;;;;;;;;;;7.10;99.90;;;;;;5081098;28;20027;-72
2023/02/11 13:34:24;;;;;;;;;;;7.00;99.90;;;;;;5092041;28;19975;-73
2023/02/11 13:36:56;;;;;;;;;;;7.00;99.90;;;;;;5074657;28;19931;-73
2023/02/11 13:39:24;;;;;;;;;;;7.00;99.90;;;;;;5088129;28;19928;-73
2023/02/11 13:42:00;;;;;;;;;;;7.00;99.90;;;;;;5101703;27;20003;-73
2023/02/11 13:44:33;;;;;;;;;;;7.00;99.90;;;;;;5098760;27;19989;-73
2023/02/11 13:47:03;;;;;;;;;;;7.00;99.90;;;;;;5082467;28;19978;-72
2023/02/11 13:49:35;;;;;;;;;;;7.00;99.90;;;;;;5085737;28;19934;-72
2023/02/11 13:52:15;;;;;;;;;;;7.00;99.90;;;;;;5093951;28;20383;-73
2023/02/11 13:54:46;;;;;;;;;;;6.90;99.90;;;;;;5080130;28;19925;-71
2023/02/11 13:57:20;;;;;;;;;;;7.00;99.90;;;;;;5081803;28;20018;-73
2023/02/11 13:59:48;;;;;;;;;;;7.00;99.90;;;;;;5077257;28;19928;-72
2023/02/11 14:11:02;;;;;;;;;;;7.00;99.90;;;;;;5102437;28;19931;-73
2023/02/11 14:30:08;;;;;;;;;;;6.90;99.90;;;;;;5089617;28;20307;-73
2023/02/11 14:36:02;;;;;;;;;;;6.90;99.90;;;;;;5087390;27;19920;-72
2023/02/11 14:38:48;;;;;;;;;;;6.90;99.90;;;;;;5072980;28;20459;-72
2023/02/11 14:41:31;;;;;;;;;;;6.90;99.90;;;;;;5071412;27;19924;-73
2023/02/11 14:44:03;;;;;;;;;;;6.90;99.90;;;;;;5074011;28;19932;-73
2023/02/11 14:46:32;;;;;;;;;;;6.90;99.90;;;;;;5092017;28;19924;-73
2023/02/11 14:49:03;;;;;;;;;;;6.90;99.90;;;;;;5075553;28;19952;-73
2023/02/11 14:51:37;;;;;;;;;;;6.80;99.90;;;;;;5087161;28;19928;-72
2023/02/11 14:54:25;;;;;;;;;;;6.80;99.90;;;;;;5074976;28;19928;-73
2023/02/11 14:57:14;;;;;;;;;;;6.80;99.90;;;;;;5069868;28;19932;-73
2023/02/11 15:00:01;;;;;;;;;;;6.80;99.90;;;;;;5090899;28;19959;-73
2023/02/11 15:02:35;;;;;;;;;;;6.80;99.90;;;;;;5091622;28;20253;-72
2023/02/11 15:13:00;;;;;;;;;;;6.70;99.90;;;;;;5085348;28;19923;-72
2023/02/11 15:15:35;;;;;;;;;;;6.60;99.90;;;;;;5077070;28;19979;-72
2023/02/11 15:18:04;;;;;;;;;;;6.60;99.90;;;;;;5088597;28;19930;-73
2023/02/11 15:20:33;;;;;;;;;;;6.50;99.90;;;;;;5079245;28;19923;-72
2023/02/11 15:23:04;;;;;;;;;;;6.40;99.90;;;;;;5074790;28;20398;-73
2023/02/11 15:25:34;;;;;;;;;;;6.20;99.90;;;;;;5072999;28;20023;-73
2023/02/11 15:28:09;;;;;;;;;;;6.10;99.90;;;;;;5075572;28;19931;-73
2023/02/11 15:30:40;;;;;;;;;;;5.90;99.90;;;;;;5075935;28;20011;-72
2023/02/11 15:33:20;;;;;;;;;;;5.70;99.90;;;;;;5073858;28;19931;-73
2023/02/11 15:35:49;;;;;;;;;;;5.60;99.90;;;;;;5072690;28;19924;-73
2023/02/11 15:38:18;;;;;;;;;;;5.50;99.90;;;;;;5087465;28;20014;-73
2023/02/11 15:40:52;;;;;;;;;;;5.50;99.90;;;;;;5072385;28;19932;-72
2023/02/11 15:43:22;;;;;;;;;;;5.60;99.90;;;;;;5072636;28;20036;-73
2023/02/11 15:45:58;;;;;;;;;;;5.50;99.90;;;;;;5083494;28;19925;-72
2023/02/11 15:48:32;;;;;;;;;;;5.40;99.90;;;;;;5107525;28;19935;-71
2023/02/11 15:51:21;;;;;;;;;;;5.20;99.90;;;;;;5099149;28;19932;-72
2023/02/11 15:53:55;;;;;;;;;;;5.10;99.90;;;;;;5084434;28;19967;-73
2023/02/11 15:56:31;;;;;;;;;;;4.90;99.90;;;;;;5088149;28;19928;-72
2023/02/11 16:05:26;;;;;;;;;;;4.80;99.90;;;;;;5128694;27;19920;-72
2023/02/11 16:11:07;;;;;;;;;;;4.60;99.90;;;;;;5099447;28;20315;-74
2023/02/11 16:13:44;;;;;;;;;;;4.60;99.90;;;;;;5090776;28;20315;-73
2023/02/11 16:19:20;;;;;;;;;;;4.60;99.90;;;;;;5106586;28;19924;-75
2023/02/11 16:21:50;;;;;;;;;;;4.50;99.90;;;;;;5098575;28;20338;-75
2023/02/11 16:24:32;;;;;;;;;;;4.40;99.90;;;;;;5110900;27;20282;-75
2023/02/11 16:27:23;;;;;;;;;;;4.30;99.90;;;;;;5089381;28;19950;-74
2023/02/11 16:29:53;;;;;;;;;;;4.10;99.90;;;;;;5105196;27;20015;-74
2023/02/11 16:32:28;;;;;;;;;;;3.90;99.90;;;;;;5089514;28;19927;-75
2023/02/11 16:35:02;;;;;;;;;;;3.80;99.90;;;;;;5099405;28;19931;-74
2023/02/11 16:37:37;;;;;;;;;;;3.60;99.90;;;;;;5107994;27;19923;-74
2023/02/11 16:40:06;;;;;;;;;;;3.60;99.90;;;;;;5091049;28;19932;-74
2023/02/11 17:12:09;;;;;;;;;;;2.80;99.90;;;;;;5048971;28;19930;-73
2023/02/11 17:14:40;;;;;;;;;;;3.00;99.90;;;;;;5096005;28;20507;-72
2023/02/11 17:17:24;;;;;;;;;;;3.00;99.90;;;;;;5075990;28;19928;-73
2023/02/11 17:19:51;;;;;;;;;;;3.00;99.90;;;;;;5068742;28;20393;-73
2023/02/11 17:22:22;;;;;;;;;;;2.90;99.90;;;;;;5078819;28;19930;-73
2023/02/11 17:27:43;;;;;;;;;;;2.80;99.90;;;;;;5424625;22;20336;-70
2023/02/11 17:30:15;;;;;;;;;;;2.70;99.90;;;;;;5055532;28;19929;-71
2023/02/11 17:32:41;;;;;;;;;;;2.60;99.90;;;;;;5049078;28;19946;-69
2023/02/11 17:35:08;;;;;;;;;;;2.60;99.90;;;;;;5079736;28;19932;-70
2023/02/11 17:37:35;;;;;;;;;;;2.50;99.90;;;;;;5077015;28;19932;-74
2023/02/11 17:40:02;;;;;;;;;;;2.50;99.90;;;;;;5040010;28;20041;-74
2023/02/11 17:42:30;;;;;;;;;;;2.50;99.90;;;;;;5039055;28;19935;-73
2023/02/11 17:45:01;;;;;;;;;;;2.50;99.90;;;;;;5054597;28;20012;-75
2023/02/11 17:47:28;;;;;;;;;;;2.50;99.90;;;;;;5056739;28;19932;-74
2023/02/11 17:50:01;;;;;;;;;;;2.50;99.90;;;;;;5056080;28;19932;-74
2023/02/11 17:52:33;;;;;;;;;;;2.50;99.90;;;;;;5055754;28;19924;-74
2023/02/11 17:55:00;;;;;;;;;;;2.50;99.90;;;;;;5049854;28;19936;-74
2023/02/11 17:57:31;;;;;;;;;;;2.40;99.90;;;;;;5039642;28;19925;-74
2023/02/11 18:00:05;;;;;;;;;;;2.40;99.90;;;;;;5056280;28;19999;-72
2023/02/11 18:02:38;;;;;;;;;;;2.50;99.90;;;;;;5071301;28;19956;-73
2023/02/11 18:05:10;;;;;;;;;;;2.40;99.90;;;;;;5052982;28;19928;-73
2023/02/11 18:07:37;;;;;;;;;;;2.50;99.90;;;;;;5037467;28;19928;-73
2023/02/11 18:10:04;;;;;;;;;;;2.50;99.90;;;;;;5039702;28;24048;-71
2023/02/11 18:12:31;;;;;;;;;;;2.40;99.90;;;;;;5042410;28;20437;-73
2023/02/11 18:15:04;;;;;;;;;;;2.40;99.90;;;;;;5042674;28;19929;-73
2023/02/11 18:17:36;;;;;;;;;;;2.40;99.90;;;;;;5030622;28;19925;-73
2023/02/11 18:20:08;;;;;;;;;;;2.40;99.90;;;;;;5040703;28;20409;-73
2023/02/11 18:22:38;;;;;;;;;;;2.40;99.90;;;;;;5041171;28;19931;-73
2023/02/11 18:25:08;;;;;;;;;;;2.30;99.90;;;;;;5042370;28;20004;-73
2023/02/11 18:27:36;;;;;;;;;;;2.30;99.90;;;;;;5040765;28;19925;-73
2023/02/11 18:30:03;;;;;;;;;;;2.30;99.90;;;;;;5042189;28;19955;-73
2023/02/11 18:32:35;;;;;;;;;;;2.20;99.90;;;;;;5043960;28;19928;-72
2023/02/11 18:35:11;;;;;;;;;;;2.20;99.90;;;;;;5042357;28;19935;-73
2023/02/11 18:37:43;;;;;;;;;;;2.20;99.90;;;;;;5047817;28;20007;-73
2023/02/11 18:40:15;;;;;;;;;;;2.10;99.90;;;;;;5032071;28;19960;-73
2023/02/11 18:42:44;;;;;;;;;;;2.00;99.90;;;;;;5041789;28;19928;-73
2023/02/11 18:45:11;;;;;;;;;;;2.00;99.90;;;;;;5046631;28;19933;-73
2023/02/11 18:47:44;;;;;;;;;;;2.00;99.90;;;;;;5028708;28;20403;-72
2023/02/11 18:50:16;;;;;;;;;;;2.00;99.90;;;;;;5015665;28;20453;-72
2023/02/11 18:52:51;;;;;;;;;;;1.90;99.90;;;;;;5043103;28;19925;-72
2023/02/11 18:56:00;;;;;;;;;;;1.90;99.90;;;;;;5049041;28;20020;-72
2023/02/11 18:58:30;;;;;;;;;;;1.90;99.90;;;;;;5047220;28;19990;-72
2023/02/11 19:01:08;;;;;;;;;;;1.90;99.90;;;;;;5032586;28;19939;-72
2023/02/11 19:03:41;;;;;;;;;;;1.80;99.90;;;;;;5023980;28;19925;-72
2023/02/11 19:06:14;;;;;;;;;;;1.80;99.90;;;;;;5040373;28;20291;-72
2023/02/11 19:09:26;;;;;;;;;;;1.80;99.90;;;;;;5043985;28;19940;-72
2023/02/11 19:11:58;;;;;;;;;;;1.80;99.90;;;;;;5041987;28;19924;-72
2023/02/11 19:14:30;;;;;;;;;;;1.80;99.90;;;;;;5022715;28;19924;-72
2023/02/11 19:17:03;;;;;;;;;;;1.80;99.90;;;;;;5017303;28;19932;-73
2023/02/11 19:19:33;;;;;;;;;;;1.80;99.90;;;;;;5042776;28;19925;-73
2023/02/11 19:22:06;;;;;;;;;;;1.80;99.90;;;;;;5031311;28;19936;-73
2023/02/11 19:24:37;;;;;;;;;;;1.80;99.90;;;;;;5029415;28;20350;-73
2023/02/11 19:27:14;;;;;;;;;;;1.80;99.90;;;;;;5062251;28;19932;-72
2023/02/11 19:29:46;;;;;;;;;;;1.80;99.90;;;;;;5038963;28;19933;-72
2023/02/11 19:32:18;;;;;;;;;;;1.80;99.90;;;;;;5057721;28;19929;-73
2023/02/11 19:34:53;;;;;;;;;;;1.80;99.90;;;;;;5038841;28;19980;-72
2023/02/11 19:37:26;;;;;;;;;;;1.80;99.90;;;;;;5045491;28;19929;-72
2023/02/11 19:39:55;;;;;;;;;;;1.80;99.90;;;;;;5029895;28;19935;-72
2023/02/11 19:42:26;;;;;;;;;;;1.80;99.90;;;;;;5025752;28;20436;-72
2023/02/11 19:44:56;;;;;;;;;;;1.70;99.90;;;;;;5045295;28;20397;-72
2023/02/11 19:47:26;;;;;;;;;;;1.80;99.90;;;;;;5022854;28;19979;-72
2023/02/11 19:49:54;;;;;;;;;;;1.80;99.90;;;;;;5029818;28;19974;-72
2023/02/11 19:52:23;;;;;;;;;;;1.70;99.90;;;;;;5031300;28;19968;-72
2023/02/11 19:54:51;;;;;;;;;;;1.70;99.90;;;;;;5036382;28;20668;-72
2023/02/11 19:57:20;;;;;;;;;;;1.70;99.90;;;;;;5030369;28;19925;-72
2023/02/11 19:59:49;;;;;;;;;;;1.70;99.90;;;;;;5030301;28;19971;-72
2023/02/11 20:02:18;;;;;;;;;;;1.70;99.90;;;;;;5047338;28;19978;-72
2023/02/11 20:04:46;;;;;;;;;;;1.70;99.90;;;;;;5047201;28;19933;-73
2023/02/11 20:07:14;;;;;;;;;;;1.60;99.90;;;;;;5027481;28;19931;-73
2023/02/11 20:09:45;;;;;;;;;;;1.70;99.90;;;;;;5040908;28;20016;-72
2023/02/11 20:12:14;;;;;;;;;;;1.60;99.90;;;;;;5026927;28;20305;-73
2023/02/11 20:14:43;;;;;;;;;;;1.70;99.90;;;;;;5029794;28;20135;-72
2023/02/11 20:17:12;;;;;;;;;;;1.60;99.90;;;;;;5033216;28;19952;-72
2023/02/11 20:19:41;;;;;;;;;;;1.60;99.90;;;;;;5032929;28;20318;-72
2023/02/11 20:22:09;;;;;;;;;;;1.70;99.90;;;;;;5031509;28;19996;-72
2023/02/11 20:24:38;;;;;;;;;;;1.70;99.90;;;;;;5036355;28;19929;-72
2023/02/11 20:27:09;;;;;;;;;;;1.70;99.90;;;;;;5014966;28;20370;-73
2023/02/11 20:29:39;;;;;;;;;;;1.60;99.90;;;;;;5038305;28;19932;-73
2023/02/11 20:32:09;;;;;;;;;;;1.60;99.90;;;;;;5036599;28;19933;-73
2023/02/11 20:34:38;;;;;;;;;;;1.60;99.90;;;;;;5029165;28;20383;-73
2023/02/11 20:37:07;;;;;;;;;;;1.60;99.90;;;;;;5027188;28;20012;-73
2023/02/11 20:39:36;;;;;;;;;;;1.70;99.90;;;;;;5026445;28;19932;-73
2023/02/11 20:42:04;;;;;;;;;;;1.70;99.90;;;;;;5025070;28;20301;-73
2023/02/11 20:44:32;;;;;;;;;;;1.70;99.90;;;;;;5028426;28;20013;-73
2023/02/11 20:47:03;;;;;;;;;;;1.70;99.90;;;;;;5045843;28;20284;-72
2023/02/11 20:49:33;;;;;;;;;;;1.60;99.90;;;;;;5043904;28;19957;-73
2023/02/11 20:52:07;;;;;;;;;;;1.70;99.90;;;;;;5043036;28;19960;-74
2023/02/11 20:54:44;;;;;;;;;;;1.70;99.90;;;;;;5045581;28;20387;-74
2023/02/11 20:57:20;;;;;;;;;;;1.70;99.90;;;;;;5047863;28;20012;-74
2023/02/11 20:59:49;;;;;;;;;;;1.70;99.90;;;;;;5045537;28;19925;-73
2023/02/11 21:02:24;;;;;;;;;;;1.70;99.90;;;;;;5047382;28;19925;-75
2023/02/11 21:04:54;;;;;;;;;;;1.70;99.90;;;;;;5037797;28;20000;-73
2023/02/11 21:07:28;;;;;;;;;;;1.70;99.90;;;;;;5027440;28;19932;-72
2023/02/11 21:10:12;;;;;;;;;;;1.70;99.90;;;;;;5033999;28;20276;-73
2023/02/11 21:12:44;;;;;;;;;;;1.80;99.90;;;;;;5045858;28;19975;-72
2023/02/11 21:15:12;;;;;;;;;;;1.70;99.90;;;;;;5035914;28;19924;-72
2023/02/11 21:17:53;;;;;;;;;;;1.70;99.90;;;;;;5040735;28;20445;-72
2023/02/11 21:20:22;;;;;;;;;;;1.70;99.90;;;;;;5030427;28;20390;-72
2023/02/11 21:22:51;;;;;;;;;;;1.70;99.90;;;;;;5028098;28;19929;-72
2023/02/11 21:25:22;;;;;;;;;;;1.70;99.90;;;;;;5041529;28;19931;-72
2023/02/11 21:27:53;;;;;;;;;;;1.80;99.90;;;;;;5050918;28;19974;-72
2023/02/11 21:30:22;;;;;;;;;;;1.70;99.90;;;;;;5050146;28;19932;-72
2023/02/11 21:32:54;;;;;;;;;;;1.80;99.90;;;;;;5019921;28;19941;-73
2023/02/11 21:35:36;;;;;;;;;;;1.70;99.90;;;;;;5043894;28;19921;-72
2023/02/11 21:38:11;;;;;;;;;;;1.70;99.90;;;;;;5049740;28;19928;-72
2023/02/11 21:40:49;;;;;;;;;;;1.70;99.90;;;;;;5043889;28;19990;-72
2023/02/11 21:43:23;;;;;;;;;;;1.70;99.90;;;;;;5048313;28;19987;-73
2023/02/11 21:45:53;;;;;;;;;;;1.70;99.90;;;;;;5028574;28;20633;-72
2023/02/11 21:48:25;;;;;;;;;;;1.70;99.90;;;;;;5045285;28;19925;-73
2023/02/11 21:50:55;;;;;;;;;;;1.70;99.90;;;;;;5042658;28;20040;-73
2023/02/11 21:53:28;;;;;;;;;;;1.70;99.90;;;;;;5040610;28;20000;-73
2023/02/11 21:56:05;;;;;;;;;;;1.80;99.90;;;;;;5032946;28;20357;-73
2023/02/11 21:58:35;;;;;;;;;;;1.70;99.90;;;;;;5032935;28;19978;-72
2023/02/11 22:01:12;;;;;;;;;;;1.80;99.90;;;;;;5032503;28;19932;-73
2023/02/11 22:03:44;;;;;;;;;;;1.70;99.90;;;;;;5047670;28;19971;-73
2023/02/11 22:06:20;;;;;;;;;;;1.80;99.90;;;;;;5041322;28;20019;-72
2023/02/11 22:08:51;;;;;;;;;;;1.70;99.90;;;;;;5048292;28;19925;-73
2023/02/11 22:11:25;;;;;;;;;;;1.80;99.90;;;;;;5051426;28;20302;-73
2023/02/11 22:13:56;;;;;;;;;;;1.80;99.90;;;;;;5035675;28;19929;-73
2023/02/11 22:16:27;;;;;;;;;;;1.70;99.90;;;;;;5040394;28;19925;-73
2023/02/11 22:18:59;;;;;;;;;;;1.70;99.90;;;;;;5042229;28;19925;-73
2023/02/11 22:21:28;;;;;;;;;;;1.70;99.90;;;;;;5032834;28;19994;-73
2023/02/11 22:23:57;;;;;;;;;;;1.70;99.90;;;;;;5043242;28;19925;-72
2023/02/11 22:26:26;;;;;;;;;;;1.70;99.90;;;;;;5032646;28;20360;-73
2023/02/11 22:28:57;;;;;;;;;;;1.70;99.90;;;;;;5043373;28;20292;-73
2023/02/11 22:31:32;;;;;;;;;;;1.80;99.90;;;;;;5041340;28;19933;-73
2023/02/11 22:34:05;;;;;;;;;;;1.80;99.90;;;;;;5049752;28;19991;-73
2023/02/11 22:36:38;;;;;;;;;;;1.80;99.90;;;;;;5024104;28;20292;-73
2023/02/11 22:39:11;;;;;;;;;;;1.80;99.90;;;;;;5028597;28;20023;-73
2023/02/11 22:41:41;;;;;;;;;;;1.70;99.90;;;;;;5046444;28;19931;-73
2023/02/11 22:44:10;;;;;;;;;;;1.70;99.90;;;;;;5034355;28;20019;-73
2023/02/11 22:46:40;;;;;;;;;;;1.70;99.90;;;;;;5046330;28;20361;-73
2023/02/11 22:49:12;;;;;;;;;;;1.70;99.90;;;;;;5024601;28;20382;-73
2023/02/11 22:51:41;;;;;;;;;;;1.70;99.90;;;;;;5023271;28;20358;-73
2023/02/11 22:54:16;;;;;;;;;;;1.70;99.90;;;;;;5044560;28;19925;-73
2023/02/11 22:56:50;;;;;;;;;;;1.70;99.90;;;;;;5043356;28;20303;-73
2023/02/11 22:59:21;;;;;;;;;;;1.70;99.90;;;;;;5042213;28;19936;-73
2023/02/11 23:01:49;;;;;;;;;;;1.70;99.90;;;;;;5022372;28;19931;-73
2023/02/11 23:04:22;;;;;;;;;;;1.70;99.90;;;;;;5047812;28;19978;-73
2023/02/11 23:06:51;;;;;;;;;;;1.70;99.90;;;;;;5017203;28;19925;-73
2023/02/11 23:09:22;;;;;;;;;;;1.70;99.90;;;;;;5050300;28;19982;-73
2023/02/11 23:11:56;;;;;;;;;;;1.80;99.90;;;;;;5049210;28;19925;-73
2023/02/11 23:14:26;;;;;;;;;;;1.80;99.90;;;;;;5044612;28;19960;-73
2023/02/11 23:16:55;;;;;;;;;;;1.80;99.90;;;;;;5031312;28;20412;-73
2023/02/11 23:19:24;;;;;;;;;;;1.80;99.90;;;;;;5021284;28;19925;-73
2023/02/11 23:21:54;;;;;;;;;;;1.90;99.90;;;;;;5024725;28;19971;-73
2023/02/11 23:24:23;;;;;;;;;;;1.90;99.90;;;;;;5028662;28;19925;-73
2023/02/11 23:26:54;;;;;;;;;;;1.80;99.90;;;;;;5030372;28;19932;-73
2023/02/11 23:29:39;;;;;;;;;;;1.80;99.90;;;;;;5045158;28;20386;-73
2023/02/11 23:32:09;;;;;;;;;;;1.80;99.90;;;;;;5028524;28;20087;-73
2023/02/11 23:34:38;;;;;;;;;;;1.80;99.90;;;;;;5028033;28;19931;-73